sensor_id;sensor_type;location;lat;lon;timestamp;pressure;altitude;pressure_sealevel;temperature;humidity
33185;BME280;19550;42.872;25.494;2022-09-12T00:01:51;96049.69;;;15.90;100.00
33185;BME280;19550;42.872;25.494;2022-09-12T00:04:18;96058.00;;;15.87;100.00
33185;BME280;19550;42.872;25.494;2022-09-12T00:06:45;96049.97;;;15.85;100.00
33185;BME280;19550;42.872;25.494;2022-09-12T00:09:14;96048.16;;;15.93;100.00
33185;BME280;19550;42.872;25.494;2022-09-12T00:11:43;96055.56;;;15.85;100.00
33185;BME280;19550;42.872;25.494;2022-09-12T00:14:11;96059.88;;;15.83;100.00
33185;BME280;19550;42.872;25.494;2022-09-12T00:16:39;96053.94;;;15.84;100.00
33185;BME280;19550;42.872;25.494;2022-09-12T00:19:06;96061.13;;;15.85;100.00
33185;BME280;19550;42.872;25.494;2022-09-12T00:21:35;96053.22;;;15.87;100.00
33185;BME280;19550;42.872;25.494;2022-09-12T00:24:04;96048.69;;;15.83;100.00
33185;BME280;19550;42.872;25.494;2022-09-12T00:26:32;96046.47;;;15.73;100.00
33185;BME280;19550;42.872;25.494;2022-09-12T00:28:59;96052.69;;;15.82;100.00
33185;BME280;19550;42.872;25.494;2022-09-12T00:31:26;96050.66;;;15.82;100.00
33185;BME280;19550;42.872;25.494;2022-09-12T00:33:55;96048.63;;;15.79;100.00
33185;BME280;19550;42.872;25.494;2022-09-12T00:36:23;96036.63;;;15.79;100.00
33185;BME280;19550;42.872;25.494;2022-09-12T00:38:51;96050.59;;;15.79;100.00
33185;BME280;19550;42.872;25.494;2022-09-12T00:41:20;96045.38;;;15.77;100.00
33185;BME280;19550;42.872;25.494;2022-09-12T00:43:50;96045.81;;;15.79;100.00
33185;BME280;19550;42.872;25.494;2022-09-12T00:46:36;96045.47;;;15.81;100.00
33185;BME280;19550;42.872;25.494;2022-09-12T00:49:08;96045.28;;;15.74;100.00
33185;BME280;19550;42.872;25.494;2022-09-12T00:51:37;96042.94;;;15.76;100.00
33185;BME280;19550;42.872;25.494;2022-09-12T00:54:09;96036.69;;;15.82;100.00
33185;BME280;19550;42.872;25.494;2022-09-12T00:56:40;96045.28;;;15.74;100.00
33185;BME280;19550;42.872;25.494;2022-09-12T00:59:12;96044.03;;;15.71;100.00
33185;BME280;19550;42.872;25.494;2022-09-12T01:01:41;96040.78;;;15.69;100.00
33185;BME280;19550;42.872;25.494;2022-09-12T01:04:10;96031.75;;;15.76;100.00
33185;BME280;19550;42.872;25.494;2022-09-12T01:06:40;96031.31;;;15.74;100.00
33185;BME280;19550;42.872;25.494;2022-09-12T01:09:08;96025.63;;;15.70;100.00
33185;BME280;19550;42.872;25.494;2022-09-12T01:11:38;96024.72;;;15.82;100.00
33185;BME280;19550;42.872;25.494;2022-09-12T01:14:06;96031.56;;;15.84;100.00
33185;BME280;19550;42.872;25.494;2022-09-12T01:16:35;96035.75;;;15.75;100.00
33185;BME280;19550;42.872;25.494;2022-09-12T01:19:14;96034.84;;;15.71;100.00
33185;BME280;19550;42.872;25.494;2022-09-12T01:21:57;96024.81;;;15.70;100.00
33185;BME280;19550;42.872;25.494;2022-09-12T01:24:51;96019.53;;;15.65;100.00
33185;BME280;19550;42.872;25.494;2022-09-12T01:27:32;96016.56;;;15.58;100.00
33185;BME280;19550;42.872;25.494;2022-09-12T01:30:22;96024.66;;;15.47;100.00
33185;BME280;19550;42.872;25.494;2022-09-12T01:33:13;96025.22;;;15.53;100.00
33185;BME280;19550;42.872;25.494;2022-09-12T01:35:49;96021.50;;;15.48;100.00
33185;BME280;19550;42.872;25.494;2022-09-12T01:38:25;96011.91;;;15.49;100.00
33185;BME280;19550;42.872;25.494;2022-09-12T01:41:02;96009.25;;;15.53;100.00
33185;BME280;19550;42.872;25.494;2022-09-12T01:43:35;96001.84;;;15.45;100.00
33185;BME280;19550;42.872;25.494;2022-09-12T01:46:13;96006.53;;;15.41;100.00
33185;BME280;19550;42.872;25.494;2022-09-12T01:48:45;96010.41;;;15.36;100.00
33185;BME280;19550;42.872;25.494;2022-09-12T01:51:18;95995.72;;;15.39;100.00
33185;BME280;19550;42.872;25.494;2022-09-12T01:53:52;96000.50;;;15.39;100.00
33185;BME280;19550;42.872;25.494;2022-09-12T01:56:23;95995.00;;;15.42;100.00
33185;BME280;19550;42.872;25.494;2022-09-12T01:58:55;96000.78;;;15.34;100.00
33185;BME280;19550;42.872;25.494;2022-09-12T02:01:26;96005.84;;;15.28;100.00
33185;BME280;19550;42.872;25.494;2022-09-12T02:04:00;95991.50;;;15.30;100.00
33185;BME280;19550;42.872;25.494;2022-09-12T02:06:32;95985.66;;;15.35;100.00
33185;BME280;19550;42.872;25.494;2022-09-12T02:09:05;95974.38;;;15.31;100.00
33185;BME280;19550;42.872;25.494;2022-09-12T02:11:39;95970.25;;;15.25;100.00
33185;BME280;19550;42.872;25.494;2022-09-12T02:14:09;95969.53;;;15.28;100.00
33185;BME280;19550;42.872;25.494;2022-09-12T02:16:41;95969.97;;;15.30;100.00
33185;BME280;19550;42.872;25.494;2022-09-12T02:19:12;95960.97;;;15.21;100.00
33185;BME280;19550;42.872;25.494;2022-09-12T02:21:45;95963.47;;;15.10;100.00
33185;BME280;19550;42.872;25.494;2022-09-12T02:24:14;95954.75;;;15.12;100.00
33185;BME280;19550;42.872;25.494;2022-09-12T02:26:46;95957.72;;;15.19;100.00
33185;BME280;19550;42.872;25.494;2022-09-12T02:29:15;95970.97;;;15.06;100.00
33185;BME280;19550;42.872;25.494;2022-09-12T02:31:45;95976.72;;;14.98;100.00
33185;BME280;19550;42.872;25.494;2022-09-12T02:34:25;95979.25;;;15.03;100.00
33185;BME280;19550;42.872;25.494;2022-09-12T02:37:00;95979.50;;;14.98;100.00
33185;BME280;19550;42.872;25.494;2022-09-12T02:39:29;95988.03;;;14.89;100.00
33185;BME280;19550;42.872;25.494;2022-09-12T02:41:58;95996.44;;;15.05;100.00
33185;BME280;19550;42.872;25.494;2022-09-12T02:44:27;95998.69;;;14.99;100.00
33185;BME280;19550;42.872;25.494;2022-09-12T02:46:59;95991.03;;;14.96;100.00
33185;BME280;19550;42.872;25.494;2022-09-12T02:49:28;95988.50;;;14.76;100.00
33185;BME280;19550;42.872;25.494;2022-09-12T02:51:55;95993.28;;;14.75;100.00
33185;BME280;19550;42.872;25.494;2022-09-12T02:54:22;95985.00;;;14.79;100.00
33185;BME280;19550;42.872;25.494;2022-09-12T02:56:50;95994.31;;;14.70;100.00
33185;BME280;19550;42.872;25.494;2022-09-12T02:59:18;95991.34;;;14.63;100.00
33185;BME280;19550;42.872;25.494;2022-09-12T03:02:16;95993.94;;;14.56;100.00
33185;BME280;19550;42.872;25.494;2022-09-12T03:05:23;95989.34;;;14.48;100.00
33185;BME280;19550;42.872;25.494;2022-09-12T03:08:06;95995.47;;;14.54;100.00
33185;BME280;19550;42.872;25.494;2022-09-12T03:10:45;96002.75;;;14.58;100.00
33185;BME280;19550;42.872;25.494;2022-09-12T03:13:21;96007.25;;;14.63;100.00
33185;BME280;19550;42.872;25.494;2022-09-12T03:15:59;96013.84;;;14.70;100.00
33185;BME280;19550;42.872;25.494;2022-09-12T03:18:49;96016.50;;;14.79;100.00
33185;BME280;19550;42.872;25.494;2022-09-12T03:21:21;96020.09;;;14.80;100.00
33185;BME280;19550;42.872;25.494;2022-09-12T03:24:02;96013.50;;;14.72;100.00
33185;BME280;19550;42.872;25.494;2022-09-12T03:26:36;96023.59;;;14.77;100.00
33185;BME280;19550;42.872;25.494;2022-09-12T03:29:06;96009.72;;;14.64;100.00
33185;BME280;19550;42.872;25.494;2022-09-12T03:31:35;96018.81;;;14.61;100.00
33185;BME280;19550;42.872;25.494;2022-09-12T03:34:05;96015.25;;;14.49;100.00
33185;BME280;19550;42.872;25.494;2022-09-12T03:36:37;96022.00;;;14.48;100.00
33185;BME280;19550;42.872;25.494;2022-09-12T03:39:05;96028.47;;;14.52;100.00
33185;BME280;19550;42.872;25.494;2022-09-12T03:41:32;96040.03;;;14.38;100.00
33185;BME280;19550;42.872;25.494;2022-09-12T03:43:59;96031.88;;;14.33;100.00
33185;BME280;19550;42.872;25.494;2022-09-12T03:46:26;96027.38;;;14.28;100.00
33185;BME280;19550;42.872;25.494;2022-09-12T03:48:52;96025.50;;;14.32;100.00
33185;BME280;19550;42.872;25.494;2022-09-12T03:51:21;96026.91;;;14.26;100.00
33185;BME280;19550;42.872;25.494;2022-09-12T03:53:47;96029.81;;;14.30;100.00
33185;BME280;19550;42.872;25.494;2022-09-12T03:56:14;96022.97;;;14.27;100.00
33185;BME280;19550;42.872;25.494;2022-09-12T03:58:42;96023.78;;;14.28;100.00
33185;BME280;19550;42.872;25.494;2022-09-12T04:01:10;96026.91;;;14.26;100.00
33185;BME280;19550;42.872;25.494;2022-09-12T04:03:38;96029.59;;;14.23;100.00
33185;BME280;19550;42.872;25.494;2022-09-12T04:06:06;96018.09;;;14.24;100.00
33185;BME280;19550;42.872;25.494;2022-09-12T04:08:35;96018.44;;;14.23;100.00
33185;BME280;19550;42.872;25.494;2022-09-12T04:11:02;96026.56;;;14.28;100.00
33185;BME280;19550;42.872;25.494;2022-09-12T04:13:29;96040.25;;;14.33;100.00
33185;BME280;19550;42.872;25.494;2022-09-12T04:15:57;96033.88;;;14.32;100.00
33185;BME280;19550;42.872;25.494;2022-09-12T04:18:24;96044.69;;;14.34;100.00
33185;BME280;19550;42.872;25.494;2022-09-12T04:20:51;96037.78;;;14.44;100.00
33185;BME280;19550;42.872;25.494;2022-09-12T04:23:18;96040.25;;;14.45;100.00
33185;BME280;19550;42.872;25.494;2022-09-12T04:25:53;96032.69;;;14.46;100.00
33185;BME280;19550;42.872;25.494;2022-09-12T04:28:20;96040.56;;;14.56;100.00
33185;BME280;19550;42.872;25.494;2022-09-12T04:30:47;96036.63;;;14.73;100.00
33185;BME280;19550;42.872;25.494;2022-09-12T04:33:14;96038.47;;;14.81;100.00
33185;BME280;19550;42.872;25.494;2022-09-12T04:35:41;96038.47;;;14.81;100.00
33185;BME280;19550;42.872;25.494;2022-09-12T04:38:10;96032.00;;;14.92;100.00
33185;BME280;19550;42.872;25.494;2022-09-12T04:40:37;96026.34;;;15.04;100.00
33185;BME280;19550;42.872;25.494;2022-09-12T04:43:05;96030.41;;;15.23;100.00
33185;BME280;19550;42.872;25.494;2022-09-12T04:45:32;96030.75;;;15.37;100.00
33185;BME280;19550;42.872;25.494;2022-09-12T04:47:59;96027.88;;;15.49;100.00
33185;BME280;19550;42.872;25.494;2022-09-12T04:50:26;96041.13;;;15.52;100.00
33185;BME280;19550;42.872;25.494;2022-09-12T04:52:53;96038.25;;;15.64;100.00
33185;BME280;19550;42.872;25.494;2022-09-12T04:55:21;96034.41;;;15.69;100.00
33185;BME280;19550;42.872;25.494;2022-09-12T04:57:49;96027.97;;;15.84;100.00
33185;BME280;19550;42.872;25.494;2022-09-12T05:00:18;96033.19;;;15.85;100.00
33185;BME280;19550;42.872;25.494;2022-09-12T05:02:45;96041.91;;;16.00;100.00
33185;BME280;19550;42.872;25.494;2022-09-12T05:05:11;96050.09;;;16.08;100.00
33185;BME280;19550;42.872;25.494;2022-09-12T05:07:38;96050.28;;;16.15;100.00
33185;BME280;19550;42.872;25.494;2022-09-12T05:10:06;96044.69;;;16.15;100.00
33185;BME280;19550;42.872;25.494;2022-09-12T05:12:33;96046.53;;;16.27;100.00
33185;BME280;19550;42.872;25.494;2022-09-12T05:15:00;96047.34;;;16.27;100.00
33185;BME280;19550;42.872;25.494;2022-09-12T05:17:29;96055.28;;;16.45;100.00
33185;BME280;19550;42.872;25.494;2022-09-12T05:19:56;96061.91;;;16.56;100.00
33185;BME280;19550;42.872;25.494;2022-09-12T05:22:23;96054.16;;;16.65;100.00
33185;BME280;19550;42.872;25.494;2022-09-12T05:24:49;96052.31;;;16.73;100.00
33185;BME280;19550;42.872;25.494;2022-09-12T05:27:16;96054.91;;;16.81;100.00
33185;BME280;19550;42.872;25.494;2022-09-12T05:29:44;96061.44;;;16.89;100.00
33185;BME280;19550;42.872;25.494;2022-09-12T05:32:11;96057.41;;;16.86;100.00
33185;BME280;19550;42.872;25.494;2022-09-12T05:34:39;96053.44;;;16.87;100.00
33185;BME280;19550;42.872;25.494;2022-09-12T05:37:06;96057.59;;;16.97;100.00
33185;BME280;19550;42.872;25.494;2022-09-12T05:39:33;96057.56;;;17.16;100.00
33185;BME280;19550;42.872;25.494;2022-09-12T05:42:00;96061.31;;;17.24;100.00
33185;BME280;19550;42.872;25.494;2022-09-12T05:59:12;96069.47;;;17.74;100.00
33185;BME280;19550;42.872;25.494;2022-09-12T06:01:40;96072.28;;;18.01;100.00
33185;BME280;19550;42.872;25.494;2022-09-12T06:04:07;96065.09;;;18.03;100.00
33185;BME280;19550;42.872;25.494;2022-09-12T06:06:36;96074.66;;;17.99;98.81
33185;BME280;19550;42.872;25.494;2022-09-12T06:09:04;96084.31;;;18.01;100.00
33185;BME280;19550;42.872;25.494;2022-09-12T06:11:33;96077.38;;;17.95;99.88
33185;BME280;19550;42.872;25.494;2022-09-12T06:14:00;96080.97;;;18.18;100.00
33185;BME280;19550;42.872;25.494;2022-09-12T06:16:30;96088.72;;;18.28;98.97
33185;BME280;19550;42.872;25.494;2022-09-12T06:19:00;96075.56;;;18.33;96.50
33185;BME280;19550;42.872;25.494;2022-09-12T06:21:28;96081.81;;;18.22;96.64
33185;BME280;19550;42.872;25.494;2022-09-12T06:23:56;96073.41;;;17.96;96.87
33185;BME280;19550;42.872;25.494;2022-09-12T06:26:24;96079.31;;;18.14;96.34
33185;BME280;19550;42.872;25.494;2022-09-12T06:28:52;96084.34;;;18.27;97.18
33185;BME280;19550;42.872;25.494;2022-09-12T06:31:21;96085.06;;;18.24;96.16
33185;BME280;19550;42.872;25.494;2022-09-12T06:33:52;96072.91;;;18.43;96.30
33185;BME280;19550;42.872;25.494;2022-09-12T06:36:21;96075.44;;;18.52;95.51
33185;BME280;19550;42.872;25.494;2022-09-12T06:38:53;96074.44;;;18.63;92.77
33185;BME280;19550;42.872;25.494;2022-09-12T06:41:20;96082.50;;;18.69;94.13
33185;BME280;19550;42.872;25.494;2022-09-12T06:43:47;96079.84;;;18.79;93.12
33185;BME280;19550;42.872;25.494;2022-09-12T06:46:14;96079.47;;;18.81;93.64
33185;BME280;19550;42.872;25.494;2022-09-12T06:48:41;96078.44;;;18.96;92.53
33185;BME280;19550;42.872;25.494;2022-09-12T06:51:11;96077.97;;;18.87;91.95
33185;BME280;19550;42.872;25.494;2022-09-12T06:53:39;96078.16;;;19.04;93.98
33185;BME280;19550;42.872;25.494;2022-09-12T06:56:09;96074.28;;;19.16;91.03
33185;BME280;19550;42.872;25.494;2022-09-12T06:58:36;96080.72;;;19.17;90.94
33185;BME280;19550;42.872;25.494;2022-09-12T07:01:05;96090.91;;;19.32;90.69
33185;BME280;19550;42.872;25.494;2022-09-12T07:03:33;96088.56;;;19.37;89.13
33185;BME280;19550;42.872;25.494;2022-09-12T07:06:04;96084.88;;;19.30;89.45
33185;BME280;19550;42.872;25.494;2022-09-12T07:08:33;96082.78;;;19.57;89.93
33185;BME280;19550;42.872;25.494;2022-09-12T07:11:08;96081.72;;;19.72;88.50
33185;BME280;19550;42.872;25.494;2022-09-12T07:13:35;96087.47;;;19.86;87.44
33185;BME280;19550;42.872;25.494;2022-09-12T07:16:02;96089.94;;;19.95;85.34
33185;BME280;19550;42.872;25.494;2022-09-12T07:18:29;96091.41;;;19.78;86.31
33185;BME280;19550;42.872;25.494;2022-09-12T07:20:58;96085.78;;;19.78;85.19
33185;BME280;19550;42.872;25.494;2022-09-12T07:23:25;96085.97;;;19.99;85.27
33185;BME280;19550;42.872;25.494;2022-09-12T07:25:54;96089.63;;;20.03;84.90
33185;BME280;19550;42.872;25.494;2022-09-12T07:28:21;96092.38;;;19.96;83.81
33185;BME280;19550;42.872;25.494;2022-09-12T07:30:49;96090.88;;;20.09;83.55
33185;BME280;19550;42.872;25.494;2022-09-12T07:33:18;96080.41;;;20.06;84.24
33185;BME280;19550;42.872;25.494;2022-09-12T07:35:45;96082.38;;;20.02;83.17
33185;BME280;19550;42.872;25.494;2022-09-12T07:38:12;96098.06;;;20.03;82.84
33185;BME280;19550;42.872;25.494;2022-09-12T07:40:39;96096.50;;;20.09;82.69
33185;BME280;19550;42.872;25.494;2022-09-12T07:43:07;96098.94;;;20.11;81.73
33185;BME280;19550;42.872;25.494;2022-09-12T07:45:34;96083.06;;;20.33;82.49
33185;BME280;19550;42.872;25.494;2022-09-12T07:48:01;96088.88;;;20.65;79.66
33185;BME280;19550;42.872;25.494;2022-09-12T07:50:28;96086.41;;;20.56;77.53
33185;BME280;19550;42.872;25.494;2022-09-12T07:52:55;96087.38;;;20.88;78.59
33185;BME280;19550;42.872;25.494;2022-09-12T07:55:22;96084.16;;;20.83;77.41
33185;BME280;19550;42.872;25.494;2022-09-12T07:57:49;96079.63;;;20.60;78.00
33185;BME280;19550;42.872;25.494;2022-09-12T08:00:18;96083.34;;;20.82;77.62
33185;BME280;19550;42.872;25.494;2022-09-12T08:02:49;96080.22;;;21.05;78.14
33185;BME280;19550;42.872;25.494;2022-09-12T08:05:17;96074.66;;;21.16;76.31
33185;BME280;19550;42.872;25.494;2022-09-12T08:07:43;96081.53;;;21.29;74.00
33185;BME280;19550;42.872;25.494;2022-09-12T08:10:10;96067.03;;;21.20;76.01
33185;BME280;19550;42.872;25.494;2022-09-12T08:12:37;96074.25;;;21.21;76.81
33185;BME280;19550;42.872;25.494;2022-09-12T08:15:05;96068.03;;;20.80;77.75
33185;BME280;19550;42.872;25.494;2022-09-12T08:17:34;96067.16;;;20.69;76.71
33185;BME280;19550;42.872;25.494;2022-09-12T08:20:01;96060.91;;;21.07;78.24
33185;BME280;19550;42.872;25.494;2022-09-12T08:22:29;96067.53;;;21.57;74.93
33185;BME280;19550;42.872;25.494;2022-09-12T08:24:56;96069.97;;;21.84;74.90
33185;BME280;19550;42.872;25.494;2022-09-12T08:27:23;96070.81;;;22.05;74.32
33185;BME280;19550;42.872;25.494;2022-09-12T08:29:50;96075.63;;;21.80;72.60
33185;BME280;19550;42.872;25.494;2022-09-12T08:32:18;96061.66;;;20.97;73.43
33185;BME280;19550;42.872;25.494;2022-09-12T08:34:46;96070.38;;;20.63;73.38
33185;BME280;19550;42.872;25.494;2022-09-12T08:37:13;96065.31;;;21.05;74.37
33185;BME280;19550;42.872;25.494;2022-09-12T08:39:40;96051.78;;;21.46;72.76
33185;BME280;19550;42.872;25.494;2022-09-12T08:42:09;96052.66;;;21.92;72.16
33185;BME280;19550;42.872;25.494;2022-09-12T08:45:03;96046.19;;;22.27;70.05
33185;BME280;19550;42.872;25.494;2022-09-12T08:47:36;96043.38;;;22.02;69.89
33185;BME280;19550;42.872;25.494;2022-09-12T08:50:16;96047.41;;;21.91;70.63
33185;BME280;19550;42.872;25.494;2022-09-12T08:52:52;96050.22;;;21.73;69.95
33185;BME280;19550;42.872;25.494;2022-09-12T08:55:29;96057.88;;;21.83;70.07
33185;BME280;19550;42.872;25.494;2022-09-12T08:57:57;96055.91;;;22.12;69.51
33185;BME280;19550;42.872;25.494;2022-09-12T09:00:30;96042.97;;;21.86;69.44
33185;BME280;19550;42.872;25.494;2022-09-12T09:03:34;96052.19;;;21.44;71.44
33185;BME280;19550;42.872;25.494;2022-09-12T09:06:12;96038.94;;;21.87;70.02
33185;BME280;19550;42.872;25.494;2022-09-12T09:08:47;96031.28;;;22.09;67.36
33185;BME280;19550;42.872;25.494;2022-09-12T09:11:32;96037.72;;;22.24;67.47
33185;BME280;19550;42.872;25.494;2022-09-12T09:14:12;96049.44;;;22.11;68.36
33185;BME280;19550;42.872;25.494;2022-09-12T09:16:59;96054.63;;;21.74;67.71
33185;BME280;19550;42.872;25.494;2022-09-12T09:19:30;96046.03;;;21.14;69.66
33185;BME280;19550;42.872;25.494;2022-09-12T09:22:05;96051.78;;;21.38;70.64
33185;BME280;19550;42.872;25.494;2022-09-12T09:24:37;96046.59;;;21.94;70.31
33185;BME280;19550;42.872;25.494;2022-09-12T09:27:10;96044.56;;;21.94;66.19
33185;BME280;19550;42.872;25.494;2022-09-12T09:29:42;96025.63;;;21.95;66.52
33185;BME280;19550;42.872;25.494;2022-09-12T09:32:14;96031.59;;;22.64;67.24
33185;BME280;19550;42.872;25.494;2022-09-12T09:34:43;96034.84;;;22.66;64.80
33185;BME280;19550;42.872;25.494;2022-09-12T09:37:15;96028.88;;;21.97;66.27
33185;BME280;19550;42.872;25.494;2022-09-12T09:39:52;96032.47;;;21.58;68.03
33185;BME280;19550;42.872;25.494;2022-09-12T09:42:31;96019.97;;;21.84;65.63
33185;BME280;19550;42.872;25.494;2022-09-12T09:45:11;96022.34;;;22.56;65.80
33185;BME280;19550;42.872;25.494;2022-09-12T09:47:39;96024.81;;;22.33;64.37
33185;BME280;19550;42.872;25.494;2022-09-12T09:50:08;96035.31;;;21.94;66.31
33185;BME280;19550;42.872;25.494;2022-09-12T09:52:38;96036.88;;;21.38;67.87
33185;BME280;19550;42.872;25.494;2022-09-12T09:55:12;96038.50;;;21.50;67.77
33185;BME280;19550;42.872;25.494;2022-09-12T09:57:44;96030.88;;;21.93;68.84
33185;BME280;19550;42.872;25.494;2022-09-12T10:00:22;96024.38;;;22.49;66.50
33185;BME280;19550;42.872;25.494;2022-09-12T10:03:05;96033.16;;;22.90;65.10
33185;BME280;19550;42.872;25.494;2022-09-12T10:05:34;96037.66;;;22.59;64.36
33185;BME280;19550;42.872;25.494;2022-09-12T10:08:03;96033.69;;;22.21;65.70
33185;BME280;19550;42.872;25.494;2022-09-12T10:10:52;96040.50;;;21.38;67.33
33185;BME280;19550;42.872;25.494;2022-09-12T10:13:23;96037.63;;;21.24;68.52
33185;BME280;19550;42.872;25.494;2022-09-12T10:15:58;96042.50;;;21.38;67.40
33185;BME280;19550;42.872;25.494;2022-09-12T10:18:34;96026.44;;;21.95;66.63
33185;BME280;19550;42.872;25.494;2022-09-12T10:21:12;96027.13;;;22.70;65.18
33185;BME280;19550;42.872;25.494;2022-09-12T10:23:42;96040.94;;;22.36;65.16
33185;BME280;19550;42.872;25.494;2022-09-12T10:26:12;96047.84;;;21.96;65.27
33185;BME280;19550;42.872;25.494;2022-09-12T10:28:42;96045.41;;;21.80;64.83
33185;BME280;19550;42.872;25.494;2022-09-12T10:31:14;96036.13;;;21.80;64.13
33185;BME280;19550;42.872;25.494;2022-09-12T10:33:43;96037.72;;;21.70;66.07
33185;BME280;19550;42.872;25.494;2022-09-12T10:36:12;96037.31;;;22.46;64.63
33185;BME280;19550;42.872;25.494;2022-09-12T10:38:48;96035.25;;;22.57;61.10
33185;BME280;19550;42.872;25.494;2022-09-12T10:41:15;96038.50;;;22.35;63.65
33185;BME280;19550;42.872;25.494;2022-09-12T10:43:42;96039.25;;;22.64;63.35
33185;BME280;19550;42.872;25.494;2022-09-12T10:46:21;96034.47;;;22.50;63.16
33185;BME280;19550;42.872;25.494;2022-09-12T10:48:50;96036.50;;;22.42;64.86
33185;BME280;19550;42.872;25.494;2022-09-12T10:51:26;96038.41;;;22.81;63.04
33185;BME280;19550;42.872;25.494;2022-09-12T10:53:56;96035.00;;;23.25;64.06
33185;BME280;19550;42.872;25.494;2022-09-12T10:56:28;96027.38;;;23.81;62.52
33185;BME280;19550;42.872;25.494;2022-09-12T10:59:12;96024.44;;;24.46;58.09
33185;BME280;19550;42.872;25.494;2022-09-12T11:01:46;96025.66;;;23.94;60.59
33185;BME280;19550;42.872;25.494;2022-09-12T11:04:25;96046.56;;;23.55;60.21
33185;BME280;19550;42.872;25.494;2022-09-12T11:07:07;96044.59;;;23.49;60.07
33185;BME280;19550;42.872;25.494;2022-09-12T11:09:41;96037.31;;;23.51;58.46
33185;BME280;19550;42.872;25.494;2022-09-12T11:12:19;96044.91;;;23.61;57.59
33185;BME280;19550;42.872;25.494;2022-09-12T11:15:03;96034.91;;;23.50;56.34
33185;BME280;19550;42.872;25.494;2022-09-12T11:17:41;96037.34;;;23.44;56.43
33185;BME280;19550;42.872;25.494;2022-09-12T11:20:27;96038.72;;;23.81;55.82
33185;BME280;19550;42.872;25.494;2022-09-12T11:23:09;96029.72;;;23.96;55.36
33185;BME280;19550;42.872;25.494;2022-09-12T11:25:45;96020.59;;;24.26;54.49
33185;BME280;19550;42.872;25.494;2022-09-12T11:28:30;96019.38;;;24.65;55.97
33185;BME280;19550;42.872;25.494;2022-09-12T11:31:35;96017.09;;;24.52;54.37
33185;BME280;19550;42.872;25.494;2022-09-12T11:34:07;96027.97;;;24.09;55.41
33185;BME280;19550;42.872;25.494;2022-09-12T11:36:40;96015.09;;;24.83;55.37
33185;BME280;19550;42.872;25.494;2022-09-12T11:39:13;96019.91;;;25.24;54.74
33185;BME280;19550;42.872;25.494;2022-09-12T11:41:44;96020.38;;;25.19;55.00
33185;BME280;19550;42.872;25.494;2022-09-12T11:44:19;96024.66;;;24.18;54.11
33185;BME280;19550;42.872;25.494;2022-09-12T11:46:47;96030.06;;;23.47;55.55
33185;BME280;19550;42.872;25.494;2022-09-12T11:49:21;96031.50;;;22.96;58.66
33185;BME280;19550;42.872;25.494;2022-09-12T11:51:54;96026.28;;;22.91;58.77
33185;BME280;19550;42.872;25.494;2022-09-12T11:54:27;96028.78;;;22.64;59.67
33185;BME280;19550;42.872;25.494;2022-09-12T11:57:03;96017.09;;;23.53;59.37
33185;BME280;19550;42.872;25.494;2022-09-12T11:59:38;96014.44;;;23.87;57.37
33185;BME280;19550;42.872;25.494;2022-09-12T12:02:11;96003.59;;;24.23;57.76
33185;BME280;19550;42.872;25.494;2022-09-12T12:04:43;96015.34;;;24.25;55.79
33185;BME280;19550;42.872;25.494;2022-09-12T12:07:15;96021.19;;;24.00;57.76
33185;BME280;19550;42.872;25.494;2022-09-12T12:09:48;96011.00;;;23.54;57.86
33185;BME280;19550;42.872;25.494;2022-09-12T12:12:21;96006.59;;;23.46;58.54
33185;BME280;19550;42.872;25.494;2022-09-12T12:14:51;96003.59;;;23.02;58.51
33185;BME280;19550;42.872;25.494;2022-09-12T12:17:19;96010.97;;;22.67;60.94
33185;BME280;19550;42.872;25.494;2022-09-12T12:19:56;96018.69;;;22.59;61.42
33185;BME280;19550;42.872;25.494;2022-09-12T12:22:24;96018.00;;;23.28;59.62
33185;BME280;19550;42.872;25.494;2022-09-12T12:25:22;95995.59;;;23.66;58.17
33185;BME280;19550;42.872;25.494;2022-09-12T12:27:56;96008.00;;;23.79;57.99
33185;BME280;19550;42.872;25.494;2022-09-12T12:33:53;95994.75;;;24.13;58.30
33185;BME280;19550;42.872;25.494;2022-09-12T12:36:36;95997.78;;;23.92;58.34
33185;BME280;19550;42.872;25.494;2022-09-12T12:46:00;96003.09;;;23.24;62.33
33185;BME280;19550;42.872;25.494;2022-09-12T12:51:21;95989.09;;;24.88;56.05
33185;BME280;19550;42.872;25.494;2022-09-12T12:53:52;95989.75;;;25.64;53.93
33185;BME280;19550;42.872;25.494;2022-09-12T12:56:26;95988.38;;;25.15;54.86
33185;BME280;19550;42.872;25.494;2022-09-12T12:58:59;95991.88;;;24.99;55.61
33185;BME280;19550;42.872;25.494;2022-09-12T13:01:28;95996.59;;;24.38;55.66
33185;BME280;19550;42.872;25.494;2022-09-12T13:03:59;96002.25;;;23.90;57.21
33185;BME280;19550;42.872;25.494;2022-09-12T13:06:33;96001.84;;;23.32;56.71
33185;BME280;19550;42.872;25.494;2022-09-12T13:09:02;95999.91;;;23.15;58.06
33185;BME280;19550;42.872;25.494;2022-09-12T13:11:32;95999.22;;;22.93;58.62
33185;BME280;19550;42.872;25.494;2022-09-12T13:14:02;96000.28;;;23.24;57.76
33185;BME280;19550;42.872;25.494;2022-09-12T13:16:34;95984.53;;;24.27;56.21
33185;BME280;19550;42.872;25.494;2022-09-12T13:19:04;95982.94;;;24.26;54.04
33185;BME280;19550;42.872;25.494;2022-09-12T13:21:31;95997.09;;;23.77;56.07
33185;BME280;19550;42.872;25.494;2022-09-12T13:24:00;96005.44;;;23.36;56.93
33185;BME280;19550;42.872;25.494;2022-09-12T13:26:33;96000.69;;;23.23;58.07
33185;BME280;19550;42.872;25.494;2022-09-12T13:29:11;95993.00;;;24.30;56.12
33185;BME280;19550;42.872;25.494;2022-09-12T13:31:39;95997.63;;;24.88;53.97
33185;BME280;19550;42.872;25.494;2022-09-12T13:34:08;95999.75;;;24.43;53.50
33185;BME280;19550;42.872;25.494;2022-09-12T13:36:46;96002.31;;;23.86;55.65